Station: EHBK - 12/07/2020 19:55Z (il y a 20 minutes)
EHBK 121955Z AUTO 04005KT 9999 NSC 16/07 Q1026 NOSIG
Vent du 040º - 5 kt
Visibilité > 10 km
Pas de nuages significatifs
Température: +16ºC - Point de rosée: +07ºC - QNH: 1026 hPa
Pas de changement significatif prévu dans les 2 heures qui suivent l'observation